Virmond, Brazil
Current Conditions -  °F | °C
As of 2:00 PM on Tuesday 27 Jan 2015 (Local Time) from SBCA Reporting Station
Broken Clouds Broken Clouds  
Wind Chill: 79°   Ceiling: 2500
Heat Index: 80°   Visibility: 6mi
Dew Point: 59°   Wind: 21mph
Humidity: 51%   Direction: 20°NNE
Pressure: 30.03"   Gusts: NA
Location:  25.38°S, 52.2°W
Report Text: SBCA 271600Z 02018KT 9999 SCT020 BKN025 BKN100 26/15 Q1017
Loading
Personal Weather Stations






























Interactive Weather Map New forecast layout! Learn more

10-Day Weather Forecast

Advertisements
Track Severe Weather on mobile